sensor_id;sensor_type;location;lat;lon;timestamp;pressure;altitude;pressure_sealevel;temperature
61703;BMP280;47622;47.726;3.298;2023-09-07T00:01:50;99110.50;;;18.54
61703;BMP280;47622;47.726;3.298;2023-09-07T00:04:19;99100.41;;;18.40
61703;BMP280;47622;47.726;3.298;2023-09-07T00:06:45;99111.16;;;18.47
61703;BMP280;47622;47.726;3.298;2023-09-07T00:09:10;99111.97;;;18.51
61703;BMP280;47622;47.726;3.298;2023-09-07T00:11:41;99107.78;;;18.50
61703;BMP280;47622;47.726;3.298;2023-09-07T00:14:06;99102.88;;;18.52
61703;BMP280;47622;47.726;3.298;2023-09-07T00:16:34;99100.53;;;18.47
61703;BMP280;47622;47.726;3.298;2023-09-07T00:19:01;99096.72;;;18.45
61703;BMP280;47622;47.726;3.298;2023-09-07T00:21:30;99113.31;;;18.42
61703;BMP280;47622;47.726;3.298;2023-09-07T00:23:55;99110.91;;;18.33
61703;BMP280;47622;47.726;3.298;2023-09-07T00:26:21;99107.72;;;18.24
61703;BMP280;47622;47.726;3.298;2023-09-07T00:28:47;99113.13;;;18.31
61703;BMP280;47622;47.726;3.298;2023-09-07T00:31:12;99112.22;;;18.20
61703;BMP280;47622;47.726;3.298;2023-09-07T00:33:38;99105.47;;;18.26
61703;BMP280;47622;47.726;3.298;2023-09-07T00:36:04;99106.22;;;18.26
61703;BMP280;47622;47.726;3.298;2023-09-07T00:38:29;99103.84;;;18.18
61703;BMP280;47622;47.726;3.298;2023-09-07T00:40:55;99096.38;;;18.27
61703;BMP280;47622;47.726;3.298;2023-09-07T00:43:21;99100.88;;;18.23
61703;BMP280;47622;47.726;3.298;2023-09-07T00:45:46;99091.66;;;18.17
61703;BMP280;47622;47.726;3.298;2023-09-07T00:48:14;99100.09;;;18.22
61703;BMP280;47622;47.726;3.298;2023-09-07T00:50:40;99100.88;;;18.23
61703;BMP280;47622;47.726;3.298;2023-09-07T00:53:07;99101.00;;;18.30
61703;BMP280;47622;47.726;3.298;2023-09-07T00:55:33;99091.84;;;18.27
61703;BMP280;47622;47.726;3.298;2023-09-07T00:58:05;99094.75;;;18.19
61703;BMP280;47622;47.726;3.298;2023-09-07T01:00:32;99086.88;;;18.03
61703;BMP280;47622;47.726;3.298;2023-09-07T01:02:59;99090.84;;;18.13
61703;BMP280;47622;47.726;3.298;2023-09-07T01:05:43;99087.19;;;18.21
61703;BMP280;47622;47.726;3.298;2023-09-07T01:08:30;99087.50;;;18.16
61703;BMP280;47622;47.726;3.298;2023-09-07T01:10:57;99091.00;;;18.01
61703;BMP280;47622;47.726;3.298;2023-09-07T01:13:22;99082.28;;;18.00
61703;BMP280;47622;47.726;3.298;2023-09-07T01:15:48;99089.59;;;18.07
61703;BMP280;47622;47.726;3.298;2023-09-07T01:18:13;99082.16;;;17.93
61703;BMP280;47622;47.726;3.298;2023-09-07T01:20:41;99081.88;;;17.79
61703;BMP280;47622;47.726;3.298;2023-09-07T01:23:07;99072.75;;;17.76
61703;BMP280;47622;47.726;3.298;2023-09-07T01:25:35;99075.41;;;17.76
61703;BMP280;47622;47.726;3.298;2023-09-07T01:28:00;99077.34;;;17.79
61703;BMP280;47622;47.726;3.298;2023-09-07T01:30:29;99085.84;;;17.69
61703;BMP280;47622;47.726;3.298;2023-09-07T01:32:54;99089.94;;;17.63
61703;BMP280;47622;47.726;3.298;2023-09-07T01:35:21;99076.53;;;17.75
61703;BMP280;47622;47.726;3.298;2023-09-07T01:37:48;99080.16;;;17.67
61703;BMP280;47622;47.726;3.298;2023-09-07T01:40:14;99078.34;;;17.52
61703;BMP280;47622;47.726;3.298;2023-09-07T01:42:40;99073.03;;;17.52
61703;BMP280;47622;47.726;3.298;2023-09-07T01:45:06;99076.25;;;17.42
61703;BMP280;47622;47.726;3.298;2023-09-07T01:47:32;99074.28;;;17.39
61703;BMP280;47622;47.726;3.298;2023-09-07T01:49:58;99071.84;;;17.30
61703;BMP280;47622;47.726;3.298;2023-09-07T01:52:23;99080.84;;;17.25
61703;BMP280;47622;47.726;3.298;2023-09-07T01:54:49;99082.72;;;17.25
61703;BMP280;47622;47.726;3.298;2023-09-07T01:57:15;99080.84;;;17.25
61703;BMP280;47622;47.726;3.298;2023-09-07T01:59:41;99076.06;;;17.15
61703;BMP280;47622;47.726;3.298;2023-09-07T02:02:06;99071.50;;;17.12
61703;BMP280;47622;47.726;3.298;2023-09-07T02:04:32;99086.00;;;17.18
61703;BMP280;47622;47.726;3.298;2023-09-07T02:06:58;99080.72;;;17.18
61703;BMP280;47622;47.726;3.298;2023-09-07T02:09:24;99079.22;;;17.21
61703;BMP280;47622;47.726;3.298;2023-09-07T02:11:49;99081.81;;;17.17
61703;BMP280;47622;47.726;3.298;2023-09-07T02:14:15;99085.13;;;17.14
61703;BMP280;47622;47.726;3.298;2023-09-07T02:16:41;99076.78;;;17.12
61703;BMP280;47622;47.726;3.298;2023-09-07T02:19:07;99086.66;;;17.15
61703;BMP280;47622;47.726;3.298;2023-09-07T02:21:32;99087.03;;;16.98
61703;BMP280;47622;47.726;3.298;2023-09-07T02:23:58;99076.06;;;16.96
61703;BMP280;47622;47.726;3.298;2023-09-07T02:26:25;99076.88;;;17.00
61703;BMP280;47622;47.726;3.298;2023-09-07T02:28:52;99078.50;;;16.89
61703;BMP280;47622;47.726;3.298;2023-09-07T02:31:18;99076.97;;;16.88
61703;BMP280;47622;47.726;3.298;2023-09-07T02:33:43;99092.78;;;17.00
61703;BMP280;47622;47.726;3.298;2023-09-07T02:36:09;99080.47;;;17.08
61703;BMP280;47622;47.726;3.298;2023-09-07T02:38:34;99073.56;;;17.03
61703;BMP280;47622;47.726;3.298;2023-09-07T02:41:00;99078.88;;;17.03
61703;BMP280;47622;47.726;3.298;2023-09-07T02:43:27;99087.72;;;17.11
61703;BMP280;47622;47.726;3.298;2023-09-07T02:45:53;99082.09;;;17.12
61703;BMP280;47622;47.726;3.298;2023-09-07T02:48:18;99086.84;;;17.22
61703;BMP280;47622;47.726;3.298;2023-09-07T02:50:44;99082.38;;;17.26
61703;BMP280;47622;47.726;3.298;2023-09-07T02:53:15;99090.44;;;17.14
61703;BMP280;47622;47.726;3.298;2023-09-07T02:55:41;99081.31;;;17.12
61703;BMP280;47622;47.726;3.298;2023-09-07T02:58:08;99081.38;;;17.15
61703;BMP280;47622;47.726;3.298;2023-09-07T03:00:34;99083.69;;;17.17
61703;BMP280;47622;47.726;3.298;2023-09-07T03:03:00;99073.28;;;17.08
61703;BMP280;47622;47.726;3.298;2023-09-07T03:05:29;99076.25;;;17.22
61703;BMP280;47622;47.726;3.298;2023-09-07T03:07:55;99081.81;;;17.37
61703;BMP280;47622;47.726;3.298;2023-09-07T03:10:21;99072.59;;;17.31
61703;BMP280;47622;47.726;3.298;2023-09-07T03:12:48;99073.69;;;17.10
61703;BMP280;47622;47.726;3.298;2023-09-07T03:15:15;99073.19;;;17.05
61703;BMP280;47622;47.726;3.298;2023-09-07T03:17:41;99077.59;;;16.97
61703;BMP280;47622;47.726;3.298;2023-09-07T03:20:07;99069.47;;;16.90
61703;BMP280;47622;47.726;3.298;2023-09-07T03:22:42;99079.38;;;16.93
61703;BMP280;47622;47.726;3.298;2023-09-07T03:25:09;99070.94;;;16.87
61703;BMP280;47622;47.726;3.298;2023-09-07T03:27:38;99071.31;;;17.05
61703;BMP280;47622;47.726;3.298;2023-09-07T03:30:04;99073.94;;;16.86
61703;BMP280;47622;47.726;3.298;2023-09-07T03:32:31;99081.91;;;16.70
61703;BMP280;47622;47.726;3.298;2023-09-07T03:34:59;99080.06;;;16.58
61703;BMP280;47622;47.726;3.298;2023-09-07T03:37:26;99073.25;;;16.57
61703;BMP280;47622;47.726;3.298;2023-09-07T03:39:53;99072.06;;;16.71
61703;BMP280;47622;47.726;3.298;2023-09-07T03:42:19;99083.31;;;16.68
61703;BMP280;47622;47.726;3.298;2023-09-07T03:44:44;99081.03;;;16.82
61703;BMP280;47622;47.726;3.298;2023-09-07T03:47:10;99081.63;;;16.91
61703;BMP280;47622;47.726;3.298;2023-09-07T03:49:36;99073.31;;;16.92
61703;BMP280;47622;47.726;3.298;2023-09-07T03:52:02;99079.81;;;16.79
61703;BMP280;47622;47.726;3.298;2023-09-07T03:54:27;99071.34;;;16.74
61703;BMP280;47622;47.726;3.298;2023-09-07T03:56:53;99072.72;;;16.68
61703;BMP280;47622;47.726;3.298;2023-09-07T03:59:20;99080.41;;;16.73
61703;BMP280;47622;47.726;3.298;2023-09-07T04:01:46;99070.53;;;16.70
61703;BMP280;47622;47.726;3.298;2023-09-07T04:04:12;99086.59;;;16.77
61703;BMP280;47622;47.726;3.298;2023-09-07T04:06:38;99081.19;;;16.73
61703;BMP280;47622;47.726;3.298;2023-09-07T04:09:05;99089.59;;;16.75
61703;BMP280;47622;47.726;3.298;2023-09-07T04:11:30;99079.94;;;16.67
61703;BMP280;47622;47.726;3.298;2023-09-07T04:13:57;99088.03;;;16.58
61703;BMP280;47622;47.726;3.298;2023-09-07T04:16:23;99079.41;;;16.62
61703;BMP280;47622;47.726;3.298;2023-09-07T04:18:49;99092.81;;;16.69
61703;BMP280;47622;47.726;3.298;2023-09-07T04:21:15;99087.50;;;16.69
61703;BMP280;47622;47.726;3.298;2023-09-07T04:23:41;99090.66;;;16.58
61703;BMP280;47622;47.726;3.298;2023-09-07T04:26:11;99092.91;;;16.56
61703;BMP280;47622;47.726;3.298;2023-09-07T04:28:38;99090.66;;;16.58
61703;BMP280;47622;47.726;3.298;2023-09-07T04:31:05;99085.38;;;16.58
61703;BMP280;47622;47.726;3.298;2023-09-07T04:33:34;99073.75;;;16.47
61703;BMP280;47622;47.726;3.298;2023-09-07T04:36:12;99090.53;;;16.51
61703;BMP280;47622;47.726;3.298;2023-09-07T04:38:39;99092.50;;;16.54
61703;BMP280;47622;47.726;3.298;2023-09-07T04:41:09;99098.03;;;16.49
61703;BMP280;47622;47.726;3.298;2023-09-07T04:43:35;99094.94;;;16.47
61703;BMP280;47622;47.726;3.298;2023-09-07T04:46:02;99095.41;;;16.65
61703;BMP280;47622;47.726;3.298;2023-09-07T04:48:28;99104.09;;;16.66
61703;BMP280;47622;47.726;3.298;2023-09-07T04:51:05;99096.16;;;16.66
61703;BMP280;47622;47.726;3.298;2023-09-07T04:53:32;99093.59;;;16.53
61703;BMP280;47622;47.726;3.298;2023-09-07T04:56:00;99087.25;;;16.42
61703;BMP280;47622;47.726;3.298;2023-09-07T04:58:26;99086.47;;;16.42
61703;BMP280;47622;47.726;3.298;2023-09-07T05:00:52;99105.72;;;16.54
61703;BMP280;47622;47.726;3.298;2023-09-07T05:03:18;99103.06;;;16.39
61703;BMP280;47622;47.726;3.298;2023-09-07T05:05:43;99105.69;;;16.23
61703;BMP280;47622;47.726;3.298;2023-09-07T05:08:10;99106.13;;;16.41
61703;BMP280;47622;47.726;3.298;2023-09-07T05:10:37;99109.13;;;16.39
61703;BMP280;47622;47.726;3.298;2023-09-07T05:13:03;99104.84;;;16.19
61703;BMP280;47622;47.726;3.298;2023-09-07T05:15:28;99114.56;;;16.31
61703;BMP280;47622;47.726;3.298;2023-09-07T05:17:55;99120.84;;;16.26
61703;BMP280;47622;47.726;3.298;2023-09-07T05:20:21;99124.84;;;16.32
61703;BMP280;47622;47.726;3.298;2023-09-07T05:22:47;99125.06;;;16.27
61703;BMP280;47622;47.726;3.298;2023-09-07T05:25:13;99115.78;;;16.33
61703;BMP280;47622;47.726;3.298;2023-09-07T05:27:41;99114.34;;;16.36
61703;BMP280;47622;47.726;3.298;2023-09-07T05:30:07;99122.97;;;16.48
61703;BMP280;47622;47.726;3.298;2023-09-07T05:32:32;99111.53;;;16.44
61703;BMP280;47622;47.726;3.298;2023-09-07T05:34:58;99131.09;;;16.55
61703;BMP280;47622;47.726;3.298;2023-09-07T05:37:23;99123.25;;;16.59
61703;BMP280;47622;47.726;3.298;2023-09-07T05:39:49;99127.94;;;16.66
61703;BMP280;47622;47.726;3.298;2023-09-07T05:42:15;99125.63;;;16.64
61703;BMP280;47622;47.726;3.298;2023-09-07T05:44:41;99133.03;;;16.74
61703;BMP280;47622;47.726;3.298;2023-09-07T05:47:07;99129.31;;;16.75
61703;BMP280;47622;47.726;3.298;2023-09-07T05:49:32;99133.50;;;16.76
61703;BMP280;47622;47.726;3.298;2023-09-07T05:51:58;99132.88;;;16.83
61703;BMP280;47622;47.726;3.298;2023-09-07T05:54:23;99128.44;;;16.87
61703;BMP280;47622;47.726;3.298;2023-09-07T05:56:49;99133.88;;;16.94
61703;BMP280;47622;47.726;3.298;2023-09-07T05:59:14;99125.59;;;16.96
61703;BMP280;47622;47.726;3.298;2023-09-07T06:01:40;99128.78;;;17.01
61703;BMP280;47622;47.726;3.298;2023-09-07T06:04:06;99132.19;;;17.17
61703;BMP280;47622;47.726;3.298;2023-09-07T06:06:33;99128.41;;;17.18
61703;BMP280;47622;47.726;3.298;2023-09-07T06:08:59;99129.38;;;17.30
61703;BMP280;47622;47.726;3.298;2023-09-07T06:11:25;99132.53;;;17.35
61703;BMP280;47622;47.726;3.298;2023-09-07T06:13:51;99135.78;;;17.44
61703;BMP280;47622;47.726;3.298;2023-09-07T06:16:18;99144.00;;;17.58
61703;BMP280;47622;47.726;3.298;2023-09-07T06:18:44;99140.47;;;17.70
61703;BMP280;47622;47.726;3.298;2023-09-07T06:21:09;99147.84;;;17.80
61703;BMP280;47622;47.726;3.298;2023-09-07T06:23:35;99139.63;;;17.85
61703;BMP280;47622;47.726;3.298;2023-09-07T06:26:02;99146.88;;;17.88
61703;BMP280;47622;47.726;3.298;2023-09-07T06:28:28;99136.09;;;17.97
61703;BMP280;47622;47.726;3.298;2023-09-07T06:30:54;99154.91;;;18.11
61703;BMP280;47622;47.726;3.298;2023-09-07T06:33:20;99154.69;;;18.20
61703;BMP280;47622;47.726;3.298;2023-09-07T06:35:46;99144.06;;;18.20
61703;BMP280;47622;47.726;3.298;2023-09-07T06:38:11;99151.22;;;18.39
61703;BMP280;47622;47.726;3.298;2023-09-07T06:40:37;99157.34;;;18.43
61703;BMP280;47622;47.726;3.298;2023-09-07T06:43:02;99159.00;;;18.51
61703;BMP280;47622;47.726;3.298;2023-09-07T06:45:34;99167.56;;;18.64
61703;BMP280;47622;47.726;3.298;2023-09-07T06:48:02;99173.97;;;18.82
61703;BMP280;47622;47.726;3.298;2023-09-07T06:50:27;99163.47;;;18.92
61703;BMP280;47622;47.726;3.298;2023-09-07T06:52:53;99158.41;;;19.10
61703;BMP280;47622;47.726;3.298;2023-09-07T06:55:19;99172.94;;;19.16
61703;BMP280;47622;47.726;3.298;2023-09-07T06:57:45;99165.81;;;19.24
61703;BMP280;47622;47.726;3.298;2023-09-07T07:00:12;99167.88;;;19.38
61703;BMP280;47622;47.726;3.298;2023-09-07T07:02:38;99175.00;;;19.56
61703;BMP280;47622;47.726;3.298;2023-09-07T07:05:04;99177.84;;;19.74
61703;BMP280;47622;47.726;3.298;2023-09-07T07:07:30;99179.22;;;19.94
61703;BMP280;47622;47.726;3.298;2023-09-07T07:09:56;99176.34;;;20.10
61703;BMP280;47622;47.726;3.298;2023-09-07T07:12:21;99171.94;;;20.28
61703;BMP280;47622;47.726;3.298;2023-09-07T07:14:47;99178.22;;;20.50
61703;BMP280;47622;47.726;3.298;2023-09-07T07:17:13;99181.06;;;20.75
61703;BMP280;47622;47.726;3.298;2023-09-07T07:19:38;99178.97;;;20.95
61703;BMP280;47622;47.726;3.298;2023-09-07T07:22:04;99181.31;;;21.07
61703;BMP280;47622;47.726;3.298;2023-09-07T07:24:29;99185.59;;;21.29
61703;BMP280;47622;47.726;3.298;2023-09-07T07:26:55;99171.22;;;21.48
61703;BMP280;47622;47.726;3.298;2023-09-07T07:29:21;99186.19;;;21.85
61703;BMP280;47622;47.726;3.298;2023-09-07T07:31:46;99181.31;;;22.12
61703;BMP280;47622;47.726;3.298;2023-09-07T07:34:12;99179.03;;;22.35
61703;BMP280;47622;47.726;3.298;2023-09-07T07:36:38;99195.78;;;22.85
61703;BMP280;47622;47.726;3.298;2023-09-07T07:39:05;99191.84;;;23.32
61703;BMP280;47622;47.726;3.298;2023-09-07T07:41:32;99172.03;;;23.85
61703;BMP280;47622;47.726;3.298;2023-09-07T07:43:57;99172.84;;;24.27
61703;BMP280;47622;47.726;3.298;2023-09-07T07:46:24;99184.47;;;24.91
61703;BMP280;47622;47.726;3.298;2023-09-07T07:48:49;99172.41;;;25.37
61703;BMP280;47622;47.726;3.298;2023-09-07T07:51:16;99179.47;;;25.81
61703;BMP280;47622;47.726;3.298;2023-09-07T07:53:42;99179.78;;;26.93
61703;BMP280;47622;47.726;3.298;2023-09-07T07:56:16;99197.38;;;28.59
61703;BMP280;47622;47.726;3.298;2023-09-07T07:58:42;99199.69;;;30.09
61703;BMP280;47622;47.726;3.298;2023-09-07T08:01:18;99206.28;;;31.53
61703;BMP280;47622;47.726;3.298;2023-09-07T08:03:44;99213.84;;;32.82
61703;BMP280;47622;47.726;3.298;2023-09-07T08:06:10;99214.09;;;33.50
61703;BMP280;47622;47.726;3.298;2023-09-07T08:08:37;99224.91;;;34.12
61703;BMP280;47622;47.726;3.298;2023-09-07T08:11:02;99229.75;;;33.94
61703;BMP280;47622;47.726;3.298;2023-09-07T08:13:34;99224.50;;;34.05
61703;BMP280;47622;47.726;3.298;2023-09-07T08:16:04;99222.28;;;34.18
61703;BMP280;47622;47.726;3.298;2023-09-07T08:18:34;99227.59;;;35.06
61703;BMP280;47622;47.726;3.298;2023-09-07T08:20:59;99220.50;;;35.55
61703;BMP280;47622;47.726;3.298;2023-09-07T08:23:25;99227.41;;;35.70
61703;BMP280;47622;47.726;3.298;2023-09-07T08:25:52;99230.56;;;35.89
61703;BMP280;47622;47.726;3.298;2023-09-07T08:28:17;99237.81;;;36.55
61703;BMP280;47622;47.726;3.298;2023-09-07T08:30:48;99241.41;;;36.77
61703;BMP280;47622;47.726;3.298;2023-09-07T08:33:13;99238.34;;;37.12
61703;BMP280;47622;47.726;3.298;2023-09-07T08:35:39;99238.59;;;37.90
61703;BMP280;47622;47.726;3.298;2023-09-07T08:38:09;99242.06;;;38.41
61703;BMP280;47622;47.726;3.298;2023-09-07T08:40:35;99237.25;;;39.26
61703;BMP280;47622;47.726;3.298;2023-09-07T08:43:04;99237.91;;;39.79
61703;BMP280;47622;47.726;3.298;2023-09-07T08:45:31;99236.28;;;39.95
61703;BMP280;47622;47.726;3.298;2023-09-07T08:48:01;99242.81;;;40.46
61703;BMP280;47622;47.726;3.298;2023-09-07T08:50:27;99242.84;;;39.04
61703;BMP280;47622;47.726;3.298;2023-09-07T08:52:53;99241.81;;;39.89
61703;BMP280;47622;47.726;3.298;2023-09-07T08:55:19;99236.72;;;40.53
61703;BMP280;47622;47.726;3.298;2023-09-07T08:57:45;99247.59;;;40.64
61703;BMP280;47622;47.726;3.298;2023-09-07T09:00:11;99245.47;;;40.03
61703;BMP280;47622;47.726;3.298;2023-09-07T09:02:50;99253.34;;;40.42
61703;BMP280;47622;47.726;3.298;2023-09-07T09:05:19;99232.22;;;40.50
61703;BMP280;47622;47.726;3.298;2023-09-07T09:07:44;99241.34;;;39.85
61703;BMP280;47622;47.726;3.298;2023-09-07T09:10:10;99232.88;;;39.83
61703;BMP280;47622;47.726;3.298;2023-09-07T09:12:45;99228.56;;;40.17
61703;BMP280;47622;47.726;3.298;2023-09-07T09:15:11;99232.81;;;40.43
61703;BMP280;47622;47.726;3.298;2023-09-07T09:17:36;99232.69;;;40.54
61703;BMP280;47622;47.726;3.298;2023-09-07T09:20:02;99232.34;;;40.63
61703;BMP280;47622;47.726;3.298;2023-09-07T09:22:31;99219.28;;;40.45
61703;BMP280;47622;47.726;3.298;2023-09-07T09:24:56;99238.38;;;41.17
61703;BMP280;47622;47.726;3.298;2023-09-07T09:27:22;99230.75;;;40.49
61703;BMP280;47622;47.726;3.298;2023-09-07T09:29:49;99221.41;;;40.57
61703;BMP280;47622;47.726;3.298;2023-09-07T09:32:16;99231.63;;;41.50
61703;BMP280;47622;47.726;3.298;2023-09-07T09:34:43;99240.31;;;41.86
61703;BMP280;47622;47.726;3.298;2023-09-07T09:37:13;99231.34;;;41.99
61703;BMP280;47622;47.726;3.298;2023-09-07T09:39:41;99222.22;;;42.04
61703;BMP280;47622;47.726;3.298;2023-09-07T09:42:08;99230.94;;;42.21
61703;BMP280;47622;47.726;3.298;2023-09-07T09:44:34;99220.78;;;42.63
61703;BMP280;47622;47.726;3.298;2023-09-07T09:47:02;99235.44;;;41.79
61703;BMP280;47622;47.726;3.298;2023-09-07T09:49:29;99229.06;;;41.97
61703;BMP280;47622;47.726;3.298;2023-09-07T09:51:55;99229.44;;;42.20
61703;BMP280;47622;47.726;3.298;2023-09-07T09:54:24;99224.84;;;42.62
61703;BMP280;47622;47.726;3.298;2023-09-07T09:56:51;99222.03;;;42.75
61703;BMP280;47622;47.726;3.298;2023-09-07T09:59:17;99225.22;;;42.79
61703;BMP280;47622;47.726;3.298;2023-09-07T10:01:45;99217.22;;;41.89
61703;BMP280;47622;47.726;3.298;2023-09-07T10:04:17;99222.75;;;42.28
61703;BMP280;47622;47.726;3.298;2023-09-07T10:06:58;99230.59;;;42.38
61703;BMP280;47622;47.726;3.298;2023-09-07T10:09:29;99225.28;;;42.13
61703;BMP280;47622;47.726;3.298;2023-09-07T10:11:57;99236.34;;;41.68
61703;BMP280;47622;47.726;3.298;2023-09-07T10:14:24;99230.50;;;41.59
61703;BMP280;47622;47.726;3.298;2023-09-07T10:16:52;99230.84;;;40.62
61703;BMP280;47622;47.726;3.298;2023-09-07T10:19:24;99219.47;;;40.71
61703;BMP280;47622;47.726;3.298;2023-09-07T10:21:52;99226.06;;;41.05
61703;BMP280;47622;47.726;3.298;2023-09-07T10:24:31;99212.69;;;40.29
61703;BMP280;47622;47.726;3.298;2023-09-07T10:27:08;99214.59;;;39.86
61703;BMP280;47622;47.726;3.298;2023-09-07T10:29:46;99216.00;;;39.68
61703;BMP280;47622;47.726;3.298;2023-09-07T10:32:13;99217.88;;;39.02
61703;BMP280;47622;47.726;3.298;2023-09-07T10:34:40;99221.41;;;39.08
61703;BMP280;47622;47.726;3.298;2023-09-07T10:37:10;99214.47;;;39.37
61703;BMP280;47622;47.726;3.298;2023-09-07T10:39:39;99201.75;;;38.88
61703;BMP280;47622;47.726;3.298;2023-09-07T10:42:04;99209.00;;;38.85
61703;BMP280;47622;47.726;3.298;2023-09-07T10:44:30;99203.66;;;39.09
61703;BMP280;47622;47.726;3.298;2023-09-07T10:46:58;99210.81;;;39.23
61703;BMP280;47622;47.726;3.298;2023-09-07T10:49:25;99201.38;;;38.61
61703;BMP280;47622;47.726;3.298;2023-09-07T10:51:50;99199.97;;;37.71
61703;BMP280;47622;47.726;3.298;2023-09-07T10:54:24;99211.63;;;38.27
61703;BMP280;47622;47.726;3.298;2023-09-07T10:56:51;99206.19;;;38.16
61703;BMP280;47622;47.726;3.298;2023-09-07T10:59:17;99207.16;;;37.91
61703;BMP280;47622;47.726;3.298;2023-09-07T11:01:46;99198.97;;;38.19
61703;BMP280;47622;47.726;3.298;2023-09-07T11:04:13;99207.63;;;38.51
61703;BMP280;47622;47.726;3.298;2023-09-07T11:06:40;99207.13;;;38.47
61703;BMP280;47622;47.726;3.298;2023-09-07T11:09:06;99203.69;;;38.18
61703;BMP280;47622;47.726;3.298;2023-09-07T11:11:36;99199.66;;;38.42
61703;BMP280;47622;47.726;3.298;2023-09-07T11:14:05;99193.00;;;37.98
61703;BMP280;47622;47.726;3.298;2023-09-07T11:16:33;99200.72;;;37.83
61703;BMP280;47622;47.726;3.298;2023-09-07T11:19:03;99201.47;;;37.78
61703;BMP280;47622;47.726;3.298;2023-09-07T11:21:30;99210.66;;;37.86
61703;BMP280;47622;47.726;3.298;2023-09-07T11:23:57;99198.22;;;37.85
61703;BMP280;47622;47.726;3.298;2023-09-07T11:26:22;99189.97;;;37.68
61703;BMP280;47622;47.726;3.298;2023-09-07T11:28:48;99202.19;;;37.84
61703;BMP280;47622;47.726;3.298;2023-09-07T11:31:18;99197.66;;;37.42
61703;BMP280;47622;47.726;3.298;2023-09-07T11:33:46;99196.13;;;37.19
61703;BMP280;47622;47.726;3.298;2023-09-07T11:36:12;99194.69;;;37.46
61703;BMP280;47622;47.726;3.298;2023-09-07T11:38:37;99193.41;;;37.30
61703;BMP280;47622;47.726;3.298;2023-09-07T11:41:03;99191.03;;;36.95
61703;BMP280;47622;47.726;3.298;2023-09-07T11:43:29;99184.19;;;37.38
61703;BMP280;47622;47.726;3.298;2023-09-07T11:45:56;99180.53;;;37.80
61703;BMP280;47622;47.726;3.298;2023-09-07T11:48:22;99178.03;;;37.66
61703;BMP280;47622;47.726;3.298;2023-09-07T11:50:47;99164.34;;;37.66
61703;BMP280;47622;47.726;3.298;2023-09-07T11:53:13;99177.25;;;37.60
61703;BMP280;47622;47.726;3.298;2023-09-07T11:55:39;99176.63;;;37.00
61703;BMP280;47622;47.726;3.298;2023-09-07T11:58:06;99172.91;;;36.50
61703;BMP280;47622;47.726;3.298;2023-09-07T12:00:32;99182.47;;;36.71
61703;BMP280;47622;47.726;3.298;2023-09-07T12:02:57;99170.09;;;36.81
61703;BMP280;47622;47.726;3.298;2023-09-07T12:05:23;99176.69;;;37.22
61703;BMP280;47622;47.726;3.298;2023-09-07T12:07:49;99177.25;;;37.49
61703;BMP280;47622;47.726;3.298;2023-09-07T12:10:15;99171.22;;;37.33
61703;BMP280;47622;47.726;3.298;2023-09-07T12:12:57;99182.09;;;37.00
61703;BMP280;47622;47.726;3.298;2023-09-07T12:15:23;99173.34;;;36.96
61703;BMP280;47622;47.726;3.298;2023-09-07T12:17:48;99186.53;;;36.92
61703;BMP280;47622;47.726;3.298;2023-09-07T12:20:19;99165.69;;;37.00
61703;BMP280;47622;47.726;3.298;2023-09-07T12:22:45;99172.25;;;37.30
61703;BMP280;47622;47.726;3.298;2023-09-07T12:25:10;99175.03;;;37.64
61703;BMP280;47622;47.726;3.298;2023-09-07T12:27:37;99166.25;;;37.37
61703;BMP280;47622;47.726;3.298;2023-09-07T12:30:02;99174.47;;;37.26
61703;BMP280;47622;47.726;3.298;2023-09-07T12:32:32;99175.41;;;37.12
61703;BMP280;47622;47.726;3.298;2023-09-07T12:34:57;99170.47;;;37.27
61703;BMP280;47622;47.726;3.298;2023-09-07T12:37:23;99167.19;;;37.07
61703;BMP280;47622;47.726;3.298;2023-09-07T12:39:50;99168.75;;;37.19
61703;BMP280;47622;47.726;3.298;2023-09-07T12:42:17;99168.25;;;37.31
61703;BMP280;47622;47.726;3.298;2023-09-07T12:44:43;99156.34;;;37.34
61703;BMP280;47622;47.726;3.298;2023-09-07T12:47:09;99168.47;;;36.58
61703;BMP280;47622;47.726;3.298;2023-09-07T12:49:34;99160.91;;;36.41
61703;BMP280;47622;47.726;3.298;2023-09-07T12:52:00;99166.34;;;36.36
61703;BMP280;47622;47.726;3.298;2023-09-07T12:54:25;99165.09;;;36.37
61703;BMP280;47622;47.726;3.298;2023-09-07T12:56:51;99148.53;;;36.52
61703;BMP280;47622;47.726;3.298;2023-09-07T12:59:17;99148.66;;;36.74
61703;BMP280;47622;47.726;3.298;2023-09-07T13:01:43;99150.78;;;36.16
61703;BMP280;47622;47.726;3.298;2023-09-07T13:04:09;99159.09;;;36.33
61703;BMP280;47622;47.726;3.298;2023-09-07T13:06:36;99145.25;;;36.05
61703;BMP280;47622;47.726;3.298;2023-09-07T13:09:02;99144.53;;;36.10
61703;BMP280;47622;47.726;3.298;2023-09-07T13:11:29;99138.13;;;35.82
61703;BMP280;47622;47.726;3.298;2023-09-07T13:13:55;99131.81;;;35.70
61703;BMP280;47622;47.726;3.298;2023-09-07T13:16:20;99137.47;;;35.67
61703;BMP280;47622;47.726;3.298;2023-09-07T13:18:46;99139.31;;;35.49
61703;BMP280;47622;47.726;3.298;2023-09-07T13:21:11;99131.94;;;35.56
61703;BMP280;47622;47.726;3.298;2023-09-07T13:23:37;99131.50;;;35.68
61703;BMP280;47622;47.726;3.298;2023-09-07T13:26:03;99131.16;;;36.12
61703;BMP280;47622;47.726;3.298;2023-09-07T13:28:28;99120.66;;;36.05
61703;BMP280;47622;47.726;3.298;2023-09-07T13:30:54;99125.19;;;36.14
61703;BMP280;47622;47.726;3.298;2023-09-07T13:33:20;99125.41;;;35.79
61703;BMP280;47622;47.726;3.298;2023-09-07T13:35:45;99109.53;;;35.51
61703;BMP280;47622;47.726;3.298;2023-09-07T13:38:11;99123.66;;;35.76
61703;BMP280;47622;47.726;3.298;2023-09-07T13:40:36;99117.38;;;35.70
61703;BMP280;47622;47.726;3.298;2023-09-07T13:43:02;99114.75;;;35.29
61703;BMP280;47622;47.726;3.298;2023-09-07T13:45:28;99121.41;;;35.74
61703;BMP280;47622;47.726;3.298;2023-09-07T13:47:56;99115.72;;;35.52
61703;BMP280;47622;47.726;3.298;2023-09-07T13:50:22;99120.88;;;35.44
61703;BMP280;47622;47.726;3.298;2023-09-07T13:52:48;99113.16;;;35.43
61703;BMP280;47622;47.726;3.298;2023-09-07T13:55:14;99114.66;;;35.70
61703;BMP280;47622;47.726;3.298;2023-09-07T13:57:40;99123.06;;;35.66
61703;BMP280;47622;47.726;3.298;2023-09-07T14:00:06;99125.38;;;35.47
61703;BMP280;47622;47.726;3.298;2023-09-07T14:02:32;99113.34;;;35.60
61703;BMP280;47622;47.726;3.298;2023-09-07T14:05:00;99114.53;;;35.84
61703;BMP280;47622;47.726;3.298;2023-09-07T14:07:26;99105.00;;;35.74